Time;durP1;ratioP1;P1;durP2;ratioP2;P2;SDS_P1;SDS_P2;PMS_P1;PMS_P2;Temp;Humidity;BMP_temperature;BMP_pressure;BME280_temperature;BME280_humidity;BME280_pressure;Samples;Min_cycle;Max_cycle;Signal;HPM_P1;HPM_P2
2022/10/20 00:02:22;;;;;;;47.37;43.67;;;11.10;99.90;;;;;;4971263;28;20938;-72
2022/10/20 00:04:49;;;;;;;49.30;45.30;;;11.10;99.90;;;;;;4971722;28;20466;-72
2022/10/20 00:07:17;;;;;;;48.57;44.27;;;11.00;99.90;;;;;;4971224;28;20470;-71
2022/10/20 00:09:44;;;;;;;46.37;42.60;;;11.00;99.90;;;;;;4971018;28;20464;-72
2022/10/20 00:12:11;;;;;;;46.43;42.40;;;11.00;99.90;;;;;;4970808;28;20484;-71
2022/10/20 00:14:38;;;;;;;48.27;44.10;;;11.00;99.90;;;;;;4971073;28;20451;-73
2022/10/20 00:17:05;;;;;;;46.97;42.97;;;11.00;99.90;;;;;;4971070;28;20464;-72
2022/10/20 00:19:32;;;;;;;45.17;41.57;;;11.00;99.90;;;;;;4971003;28;20494;-72
2022/10/20 00:21:59;;;;;;;46.83;42.37;;;11.00;99.90;;;;;;4970861;28;20479;-72
2022/10/20 00:24:27;;;;;;;48.40;44.10;;;10.90;99.90;;;;;;4970844;28;20463;-72
2022/10/20 00:26:54;;;;;;;48.93;44.13;;;10.90;99.90;;;;;;4970732;28;20451;-72
2022/10/20 00:29:21;;;;;;;49.53;45.33;;;10.80;99.90;;;;;;4971052;28;20462;-72
2022/10/20 00:31:47;;;;;;;45.70;41.50;;;10.80;99.90;;;;;;4970713;28;20483;-73
2022/10/20 00:34:14;;;;;;;49.67;44.90;;;10.90;99.90;;;;;;4970709;28;20456;-72
2022/10/20 00:36:41;;;;;;;47.90;43.67;;;10.90;99.90;;;;;;4970688;28;20462;-73
2022/10/20 00:39:08;;;;;;;46.40;42.60;;;11.10;99.90;;;;;;4970386;28;20462;-72
2022/10/20 00:41:36;;;;;;;50.13;45.63;;;11.10;99.90;;;;;;4970195;28;20487;-72
2022/10/20 00:44:23;;;;;;;49.30;45.10;;;11.10;99.90;;;;;;4970227;28;20977;-72
2022/10/20 00:46:50;;;;;;;48.90;44.27;;;11.00;99.90;;;;;;4970322;28;20451;-73
2022/10/20 00:49:22;;;;;;;49.27;45.13;;;10.90;99.90;;;;;;4970213;28;20455;-72
2022/10/20 00:51:50;;;;;;;49.70;45.17;;;10.90;99.90;;;;;;4970255;28;20506;-73
2022/10/20 00:54:20;;;;;;;49.83;45.50;;;10.90;99.90;;;;;;4970012;28;20451;-72
2022/10/20 00:56:49;;;;;;;50.77;45.50;;;10.90;99.90;;;;;;4969930;28;20447;-72
2022/10/20 00:59:21;;;;;;;47.70;43.47;;;11.00;99.90;;;;;;4968957;28;20815;-72
2022/10/20 01:01:49;;;;;;;48.10;44.00;;;11.00;99.90;;;;;;4970292;28;20539;-72
2022/10/20 01:04:17;;;;;;;51.73;47.37;;;10.90;99.90;;;;;;4969968;28;20459;-73
2022/10/20 01:06:43;;;;;;;50.53;46.20;;;10.90;99.90;;;;;;4969786;28;20462;-72
2022/10/20 01:09:10;;;;;;;49.43;45.20;;;10.90;99.90;;;;;;4970109;28;20527;-72
2022/10/20 01:11:47;;;;;;;50.83;46.43;;;10.90;99.90;;;;;;4970162;28;20491;-72
2022/10/20 01:14:28;;;;;;;51.50;46.60;;;10.90;99.90;;;;;;4969794;28;20621;-72
2022/10/20 01:17:03;;;;;;;52.13;47.73;;;11.00;99.90;;;;;;4969732;28;20455;-72
2022/10/20 01:19:50;;;;;;;50.03;45.50;;;11.00;99.90;;;;;;4969802;28;20459;-72
2022/10/20 01:22:28;;;;;;;49.83;45.13;;;11.00;99.90;;;;;;4969832;28;20450;-73
2022/10/20 01:25:06;;;;;;;52.00;46.97;;;10.90;99.90;;;;;;4969481;28;20468;-72
2022/10/20 01:27:37;;;;;;;52.60;48.13;;;11.00;99.90;;;;;;4969919;28;20452;-73
2022/10/20 01:30:12;;;;;;;51.90;47.23;;;11.00;99.90;;;;;;4969819;28;20918;-73
2022/10/20 01:32:58;;;;;;;51.87;47.20;;;10.90;99.90;;;;;;4969885;28;20513;-73
2022/10/20 01:35:38;;;;;;;51.40;46.80;;;10.90;99.90;;;;;;4969548;28;20968;-73
2022/10/20 01:38:13;;;;;;;50.67;46.27;;;10.90;99.90;;;;;;4970286;28;20466;-73
2022/10/20 01:40:45;;;;;;;52.23;47.60;;;10.90;99.90;;;;;;4969127;28;20474;-73
2022/10/20 01:43:15;;;;;;;51.87;47.40;;;10.80;99.90;;;;;;4969487;28;20461;-72
2022/10/20 01:45:45;;;;;;;55.60;50.67;;;10.80;99.90;;;;;;4969556;28;20466;-72
2022/10/20 01:48:15;;;;;;;50.27;45.50;;;10.80;99.90;;;;;;4969403;28;20459;-72
2022/10/20 01:50:42;;;;;;;52.23;47.13;;;10.90;99.90;;;;;;4969711;28;20456;-72
2022/10/20 01:53:11;;;;;;;52.53;47.37;;;11.00;99.90;;;;;;4969369;28;20495;-72
2022/10/20 01:55:38;;;;;;;51.27;46.30;;;10.90;99.90;;;;;;4969527;28;20451;-73
2022/10/20 01:58:35;;;;;;;54.27;48.97;;;11.00;99.90;;;;;;4969591;28;20824;-74
2022/10/20 02:01:12;;;;;;;50.10;45.33;;;11.00;99.90;;;;;;4969381;28;20614;-74
2022/10/20 02:03:49;;;;;;;52.37;47.27;;;11.00;99.90;;;;;;4969370;28;20447;-74
2022/10/20 02:06:28;;;;;;;52.33;46.90;;;11.10;99.90;;;;;;4969338;28;20832;-74
2022/10/20 02:08:58;;;;;;;50.43;46.00;;;11.10;99.90;;;;;;4969414;28;20509;-74
2022/10/20 02:11:30;;;;;;;49.87;45.10;;;11.10;99.90;;;;;;4971113;28;20503;-74
2022/10/20 02:13:59;;;;;;;47.47;43.30;;;11.10;99.90;;;;;;4973112;28;20470;-74
2022/10/20 02:16:29;;;;;;;49.63;45.07;;;11.10;99.90;;;;;;4973229;28;20455;-75
2022/10/20 02:18:57;;;;;;;49.43;44.60;;;11.20;99.90;;;;;;4973132;28;20459;-74
2022/10/20 02:21:25;;;;;;;49.47;44.53;;;11.20;99.90;;;;;;4973266;28;20801;-74
2022/10/20 02:23:54;;;;;;;49.27;44.87;;;11.10;99.90;;;;;;4973562;28;20820;-74
2022/10/20 02:26:24;;;;;;;52.53;47.37;;;11.00;99.90;;;;;;4973243;28;20451;-75
2022/10/20 02:28:56;;;;;;;49.77;45.13;;;11.00;99.90;;;;;;4973258;28;20479;-74
2022/10/20 02:31:25;;;;;;;51.17;45.87;;;10.90;99.90;;;;;;4973131;28;20494;-74
2022/10/20 02:33:53;;;;;;;52.63;47.70;;;10.90;99.90;;;;;;4973064;28;20462;-76
2022/10/20 02:36:26;;;;;;;52.77;48.00;;;10.90;99.90;;;;;;4972979;28;20444;-73
2022/10/20 02:38:53;;;;;;;50.77;46.37;;;;;;;;;;4972804;28;20456;-73
2022/10/20 02:41:19;;;;;;;50.40;45.47;;;10.90;99.90;;;;;;4972512;28;20486;-73
2022/10/20 02:43:46;;;;;;;51.87;46.53;;;10.90;99.90;;;;;;4972463;28;20964;-73
2022/10/20 02:46:13;;;;;;;51.40;46.87;;;10.90;99.90;;;;;;4972482;28;20455;-74
2022/10/20 02:48:41;;;;;;;50.90;46.50;;;10.90;99.90;;;;;;4972378;28;20557;-73
2022/10/20 02:51:08;;;;;;;49.37;44.77;;;11.10;99.90;;;;;;4972548;28;20466;-74
2022/10/20 02:53:34;;;;;;;49.87;45.47;;;11.10;99.90;;;;;;4972548;28;20455;-74
2022/10/20 02:56:01;;;;;;;51.70;47.03;;;11.20;99.90;;;;;;4972369;28;20463;-74
2022/10/20 02:58:28;;;;;;;52.57;47.43;;;11.10;99.90;;;;;;4972437;28;20661;-75
2022/10/20 03:00:54;;;;;;;51.10;46.33;;;11.20;99.90;;;;;;4972414;28;20459;-75
2022/10/20 03:03:21;;;;;;;52.40;47.50;;;11.20;99.90;;;;;;4972774;28;20460;-75
2022/10/20 03:05:49;;;;;;;48.40;44.10;;;11.20;99.90;;;;;;4972478;28;20456;-74
2022/10/20 03:08:16;;;;;;;51.03;46.20;;;11.30;99.90;;;;;;4972137;28;20460;-75
2022/10/20 03:10:43;;;;;;;51.17;44.43;;;11.40;99.90;;;;;;4972106;28;20448;-75
2022/10/20 03:13:10;;;;;;;51.97;47.23;;;11.30;99.90;;;;;;4972094;28;21027;-74
2022/10/20 03:15:37;;;;;;;50.53;46.03;;;11.30;99.90;;;;;;4972376;28;20795;-74
2022/10/20 03:18:04;;;;;;;50.40;45.37;;;11.30;99.90;;;;;;4972623;28;20802;-75
2022/10/20 03:20:31;;;;;;;47.50;43.33;;;11.30;99.90;;;;;;4972174;28;20462;-75
2022/10/20 03:22:59;;;;;;;48.03;43.57;;;11.30;99.90;;;;;;4971273;28;20447;-75
2022/10/20 03:25:26;;;;;;;50.57;45.67;;;11.30;99.90;;;;;;4972698;28;20924;-75
2022/10/20 03:27:53;;;;;;;48.10;43.97;;;11.40;99.90;;;;;;4972848;28;20790;-75
2022/10/20 03:30:19;;;;;;;48.80;44.80;;;11.40;99.90;;;;;;4972206;28;20462;-74
2022/10/20 03:35:22;;;;;;;51.87;47.10;;;11.30;99.90;;;;;;5537713;23;20486;-76
2022/10/20 03:37:48;;;;;;;51.63;46.33;;;11.40;99.90;;;;;;4991351;28;20469;-73
2022/10/20 03:40:16;;;;;;;48.97;44.03;;;11.40;99.90;;;;;;4991180;28;20459;-73
2022/10/20 03:42:43;;;;;;;46.57;42.67;;;11.30;99.90;;;;;;4991198;28;20947;-73
2022/10/20 03:45:10;;;;;;;48.90;44.20;;;11.40;99.90;;;;;;4990972;28;20459;-73
2022/10/20 03:47:37;;;;;;;46.80;42.40;;;11.30;99.90;;;;;;4991200;28;20459;-76
2022/10/20 03:50:05;;;;;;;47.40;43.00;;;11.40;99.90;;;;;;4991129;28;20483;-75
2022/10/20 03:52:31;;;;;;;49.60;45.00;;;11.40;99.90;;;;;;4991183;28;21115;-76
2022/10/20 03:54:58;;;;;;;51.60;47.00;;;11.40;99.90;;;;;;4991400;28;20455;-75
2022/10/20 03:57:26;;;;;;;50.60;45.93;;;11.30;99.90;;;;;;4990732;28;20828;-75
2022/10/20 03:59:53;;;;;;;51.40;46.50;;;11.30;99.90;;;;;;4990215;28;20454;-75
2022/10/20 04:02:30;;;;;;;49.80;45.37;;;11.40;99.90;;;;;;4990736;28;20830;-75
2022/10/20 04:04:57;;;;;;;52.13;47.40;;;11.50;99.90;;;;;;4990684;28;20469;-75
2022/10/20 04:07:24;;;;;;;50.67;46.17;;;11.50;99.90;;;;;;4990594;28;20454;-75
2022/10/20 04:09:50;;;;;;;50.03;45.33;;;11.50;99.90;;;;;;4990502;28;20458;-75
2022/10/20 04:12:17;;;;;;;53.97;48.67;;;11.50;99.90;;;;;;4990639;28;20494;-75
2022/10/20 04:14:45;;;;;;;52.50;47.30;;;11.60;99.90;;;;;;4990729;28;20945;-75
2022/10/20 04:17:12;;;;;;;51.97;46.57;;;11.60;99.90;;;;;;4990585;28;20473;-74
2022/10/20 04:19:38;;;;;;;50.97;46.23;;;11.50;99.90;;;;;;4990465;28;20485;-74
2022/10/20 04:22:05;;;;;;;52.23;47.47;;;11.60;99.90;;;;;;4990242;28;20443;-75
2022/10/20 04:24:32;;;;;;;50.70;45.57;;;11.60;99.90;;;;;;4990362;28;20455;-74
2022/10/20 04:26:59;;;;;;;48.93;43.97;;;11.60;99.90;;;;;;4990607;28;20454;-74
2022/10/20 04:29:26;;;;;;;49.10;44.40;;;11.60;99.90;;;;;;4990292;28;20481;-75
2022/10/20 04:31:54;;;;;;;49.17;44.67;;;11.70;99.90;;;;;;4990046;28;20447;-74
2022/10/20 04:34:21;;;;;;;49.63;45.33;;;11.80;99.90;;;;;;4989413;28;21111;-75
2022/10/20 04:36:48;;;;;;;49.67;44.93;;;11.80;99.90;;;;;;4990025;28;20457;-75
2022/10/20 04:39:14;;;;;;;49.50;45.10;;;11.80;99.90;;;;;;4990197;28;20956;-75
2022/10/20 04:41:41;;;;;;;54.60;48.73;;;11.70;99.90;;;;;;4990184;28;20451;-75
2022/10/20 04:44:08;;;;;;;51.37;46.37;;;11.70;99.90;;;;;;4990078;28;20442;-75
2022/10/20 04:46:35;;;;;;;50.90;46.00;;;11.80;99.90;;;;;;4989825;28;20482;-75
2022/10/20 04:49:04;;;;;;;52.37;47.70;;;11.80;99.90;;;;;;4989867;28;20462;-75
2022/10/20 04:51:31;;;;;;;48.67;44.17;;;11.80;99.90;;;;;;4990241;28;20454;-75
2022/10/20 04:53:58;;;;;;;50.93;46.23;;;11.80;99.90;;;;;;4990284;28;20490;-75
2022/10/20 04:56:24;;;;;;;53.07;48.00;;;11.80;99.90;;;;;;4990070;28;20447;-75
2022/10/20 04:58:53;;;;;;;49.57;44.77;;;11.80;99.90;;;;;;4989891;28;20945;-75
2022/10/20 05:01:22;;;;;;;52.70;47.60;;;11.90;99.90;;;;;;4989682;28;20458;-75
2022/10/20 05:03:48;;;;;;;55.10;49.47;;;11.90;99.90;;;;;;4989679;28;20509;-75
2022/10/20 05:06:18;;;;;;;52.00;47.00;;;11.80;99.90;;;;;;4990054;28;20481;-75
2022/10/20 05:08:46;;;;;;;51.00;46.10;;;11.80;99.90;;;;;;4990003;28;20454;-75
2022/10/20 05:11:13;;;;;;;53.63;48.70;;;11.90;99.90;;;;;;4989882;28;20944;-75
2022/10/20 05:13:40;;;;;;;54.33;49.00;;;11.90;99.90;;;;;;4989722;28;20497;-75
2022/10/20 05:16:08;;;;;;;51.43;46.60;;;11.90;99.90;;;;;;4989265;28;20458;-74
2022/10/20 05:18:35;;;;;;;53.50;47.90;;;12.00;99.90;;;;;;4989144;28;20451;-74
2022/10/20 05:21:05;;;;;;;50.57;45.67;;;12.00;99.90;;;;;;4989475;28;20454;-75
2022/10/20 05:23:33;;;;;;;54.70;49.13;;;12.00;99.90;;;;;;4989317;28;20817;-74
2022/10/20 05:26:02;;;;;;;51.10;46.10;;;12.00;99.90;;;;;;4989606;28;20462;-75
2022/10/20 05:28:29;;;;;;;51.43;46.20;;;11.90;99.90;;;;;;4989696;28;20450;-75
2022/10/20 05:30:56;;;;;;;51.50;46.00;;;11.90;99.90;;;;;;4989174;28;20549;-75
2022/10/20 05:33:23;;;;;;;56.57;47.83;;;11.80;99.90;;;;;;4988945;28;20501;-75
2022/10/20 05:35:49;;;;;;;51.37;46.00;;;11.90;99.90;;;;;;4988983;28;20479;-75
2022/10/20 05:38:16;;;;;;;53.20;47.47;;;11.90;99.90;;;;;;4988947;28;20466;-74
2022/10/20 05:40:44;;;;;;;50.93;46.10;;;11.90;99.90;;;;;;4989523;28;20462;-75
2022/10/20 05:43:11;;;;;;;53.90;48.30;;;;;;;;;;4989242;28;20454;-75
2022/10/20 05:45:38;;;;;;;53.10;47.97;;;11.90;99.90;;;;;;4989934;28;20819;-76
2022/10/20 05:48:05;;;;;;;60.00;54.20;;;11.90;99.90;;;;;;4993259;28;20462;-76
2022/10/20 05:50:32;;;;;;;55.87;50.27;;;11.90;99.90;;;;;;4993303;28;20477;-75
2022/10/20 05:52:59;;;;;;;52.20;47.20;;;12.00;99.90;;;;;;4993447;28;20489;-75
2022/10/20 05:55:29;;;;;;;53.63;48.00;;;12.00;99.90;;;;;;4993337;28;20948;-76
2022/10/20 05:57:57;;;;;;;53.07;47.63;;;12.00;99.90;;;;;;4990986;28;20447;-76
2022/10/20 06:00:29;;;;;;;54.83;49.23;;;12.00;99.90;;;;;;4985921;28;20801;-76
2022/10/20 06:02:56;;;;;;;53.97;48.63;;;12.00;99.90;;;;;;4976974;28;20454;-76
2022/10/20 06:05:23;;;;;;;58.00;51.77;;;12.00;99.90;;;;;;4993181;28;20451;-76
2022/10/20 06:07:49;;;;;;;51.07;45.77;;;12.00;99.90;;;;;;4984915;28;20451;-76
2022/10/20 06:10:16;;;;;;;53.70;47.90;;;12.10;99.90;;;;;;4974469;28;20528;-77
2022/10/20 06:12:46;;;;;;;51.70;46.90;;;12.10;99.90;;;;;;4974484;28;20509;-77
2022/10/20 06:15:14;;;;;;;53.40;47.87;;;12.10;99.90;;;;;;4989791;28;20470;-76
2022/10/20 06:17:40;;;;;;;56.03;47.13;;;12.10;99.90;;;;;;4993784;28;20780;-76
2022/10/20 06:20:08;;;;;;;50.77;46.03;;;12.20;99.90;;;;;;4992971;28;20465;-77
2022/10/20 06:22:34;;;;;;;49.97;45.03;;;12.20;99.90;;;;;;4993172;28;20767;-77
2022/10/20 06:25:01;;;;;;;53.10;47.73;;;12.30;99.90;;;;;;4993217;28;20461;-76
2022/10/20 06:27:28;;;;;;;51.23;46.37;;;12.30;99.90;;;;;;4993325;28;20932;-76
2022/10/20 06:29:54;;;;;;;49.20;44.47;;;12.40;99.90;;;;;;4992933;28;20454;-76
2022/10/20 06:32:22;;;;;;;52.23;47.13;;;12.30;99.90;;;;;;4992781;28;20490;-75
2022/10/20 06:34:49;;;;;;;51.10;45.97;;;12.40;99.90;;;;;;4990486;28;20498;-76
2022/10/20 06:37:16;;;;;;;50.37;45.50;;;12.50;99.90;;;;;;4990352;28;20461;-77
2022/10/20 06:39:43;;;;;;;50.07;45.57;;;12.50;99.90;;;;;;4992318;28;20477;-76
2022/10/20 06:42:09;;;;;;;52.80;47.70;;;12.60;99.90;;;;;;4991944;28;20442;-77
2022/10/20 06:44:36;;;;;;;52.17;46.77;;;12.60;99.90;;;;;;4991957;28;20454;-77
2022/10/20 06:47:06;;;;;;;49.80;45.20;;;12.60;99.90;;;;;;4992349;28;20454;-77
2022/10/20 06:49:34;;;;;;;47.23;42.93;;;12.70;99.90;;;;;;4991988;28;20968;-76
2022/10/20 06:52:01;;;;;;;47.53;43.20;;;12.70;99.90;;;;;;4992319;28;20457;-76
2022/10/20 06:54:27;;;;;;;48.60;44.00;;;12.90;99.90;;;;;;4992185;28;20883;-76
2022/10/20 06:56:54;;;;;;;47.23;42.53;;;13.00;99.90;;;;;;4991925;28;20458;-76
2022/10/20 06:59:21;;;;;;;46.10;41.97;;;13.10;99.90;;;;;;4992093;28;20601;-76
2022/10/20 07:01:47;;;;;;;47.73;42.93;;;13.20;99.90;;;;;;4991945;28;20455;-76
2022/10/20 07:04:15;;;;;;;46.37;41.57;;;13.40;99.90;;;;;;4992177;28;20819;-75
2022/10/20 07:06:45;;;;;;;46.17;41.60;;;13.70;99.90;;;;;;4991971;28;20952;-75
2022/10/20 07:09:15;;;;;;;44.33;38.10;;;13.90;99.90;;;;;;4992283;28;20466;-76
2022/10/20 07:11:42;;;;;;;39.40;35.90;;;14.10;99.90;;;;;;4992590;28;20949;-76
2022/10/20 07:14:11;;;;;;;36.57;33.63;;;14.30;99.90;;;;;;4992324;28;20486;-76
2022/10/20 07:16:38;;;;;;;32.50;29.37;;;14.60;99.90;;;;;;4992195;28;20443;-76
2022/10/20 07:19:05;;;;;;;31.37;28.67;;;14.70;99.90;;;;;;4991924;28;20477;-76
2022/10/20 07:21:33;;;;;;;27.40;25.30;;;15.10;99.90;;;;;;4992091;28;20453;-76
2022/10/20 07:24:03;;;;;;;28.23;25.83;;;15.30;99.90;;;;;;4992272;28;20796;-74
2022/10/20 07:26:31;;;;;;;25.77;23.53;;;15.70;99.90;;;;;;4992266;28;20453;-75
2022/10/20 07:29:00;;;;;;;28.13;24.63;;;15.80;99.90;;;;;;4992295;28;20450;-74
2022/10/20 07:31:29;;;;;;;26.10;23.87;;;15.80;99.90;;;;;;4992116;28;20824;-74
2022/10/20 07:33:57;;;;;;;25.40;23.60;;;15.60;99.90;;;;;;4991534;28;20996;-74
2022/10/20 07:36:26;;;;;;;25.77;23.80;;;15.40;99.90;;;;;;4991349;28;20792;-73
2022/10/20 07:38:54;;;;;;;23.23;21.73;;;15.60;99.90;;;;;;4991314;28;21078;-74
2022/10/20 07:41:22;;;;;;;25.13;23.23;;;15.80;99.90;;;;;;4991612;28;20539;-73
2022/10/20 07:43:50;;;;;;;23.10;21.60;;;16.10;99.90;;;;;;4990763;28;20439;-72
2022/10/20 07:46:17;;;;;;;22.23;20.70;;;16.50;99.90;;;;;;4990945;28;20459;-72
2022/10/20 07:48:45;;;;;;;21.77;20.27;;;16.90;99.90;;;;;;4990776;28;20451;-73
2022/10/20 07:51:17;;;;;;;20.20;18.60;;;17.40;99.90;;;;;;4990634;28;20558;-72
2022/10/20 07:53:44;;;;;;;21.13;19.20;;;17.90;99.90;;;;;;4990743;28;20497;-74
2022/10/20 07:56:11;;;;;;;20.47;18.90;;;18.70;99.90;;;;;;4990560;28;20963;-74
2022/10/20 07:58:40;;;;;;;21.33;19.87;;;19.30;99.90;;;;;;4990433;28;20822;-72
2022/10/20 08:01:07;;;;;;;20.70;19.33;;;19.40;99.90;;;;;;4990357;28;21011;-74
2022/10/20 08:03:34;;;;;;;20.37;18.50;;;19.60;99.90;;;;;;4990220;28;20933;-73
2022/10/20 08:06:01;;;;;;;21.23;19.40;;;19.90;99.90;;;;;;4990601;28;20455;-74
2022/10/20 08:08:28;;;;;;;19.60;18.13;;;20.20;99.90;;;;;;4989842;28;20474;-74
2022/10/20 08:10:55;;;;;;;19.50;18.20;;;20.50;99.90;;;;;;4989933;28;20455;-71
2022/10/20 08:13:22;;;;;;;18.27;16.97;;;20.30;99.90;;;;;;4989764;28;20494;-74
2022/10/20 08:15:50;;;;;;;19.90;18.70;;;19.70;99.90;;;;;;4990060;28;20451;-72
2022/10/20 08:18:16;;;;;;;20.17;18.63;;;19.70;99.90;;;;;;4990148;28;20956;-72
2022/10/20 08:20:44;;;;;;;20.07;18.67;;;19.40;99.90;;;;;;4990328;28;20450;-72
2022/10/20 08:23:11;;;;;;;18.60;17.27;;;19.70;99.90;;;;;;4989768;28;20451;-72
2022/10/20 08:25:38;;;;;;;18.63;17.30;;;20.40;99.90;;;;;;4989731;28;20454;-72
2022/10/20 08:28:05;;;;;;;19.47;18.17;;;21.30;99.90;;;;;;4989669;28;20953;-72
2022/10/20 08:30:31;;;;;;;18.57;17.37;;;21.50;99.90;;;;;;4990068;28;20447;-72
2022/10/20 08:32:59;;;;;;;19.23;17.53;;;20.70;99.90;;;;;;4989754;28;20450;-74
2022/10/20 08:35:26;;;;;;;18.00;16.80;;;20.90;99.90;;;;;;4989497;28;20482;-71
2022/10/20 08:37:54;;;;;;;18.47;17.23;;;21.00;99.90;;;;;;4989573;28;20648;-71
2022/10/20 08:40:24;;;;;;;17.90;16.80;;;20.80;99.90;;;;;;4989476;28;20948;-71
2022/10/20 08:42:51;;;;;;;16.37;15.47;;;20.40;99.90;;;;;;4989679;28;20459;-74
2022/10/20 08:45:21;;;;;;;16.90;15.80;;;20.50;99.90;;;;;;4989585;28;20941;-71
2022/10/20 08:47:50;;;;;;;17.30;16.20;;;20.70;99.90;;;;;;4989846;28;20446;-72
2022/10/20 08:50:20;;;;;;;16.20;15.37;;;20.20;99.90;;;;;;4989889;28;20513;-72
2022/10/20 08:52:50;;;;;;;16.47;15.50;;;19.80;99.90;;;;;;4989883;28;20878;-72
2022/10/20 08:55:24;;;;;;;15.30;14.30;;;19.70;99.90;;;;;;4989500;28;20487;-73
2022/10/20 08:57:51;;;;;;;15.50;14.67;;;19.90;99.90;;;;;;4989574;28;20457;-73
2022/10/20 09:00:20;;;;;;;15.53;14.73;;;20.10;99.90;;;;;;4989627;28;20949;-73
2022/10/20 09:02:49;;;;;;;16.50;15.60;;;21.10;99.90;;;;;;4989348;28;20481;-72
2022/10/20 09:05:20;;;;;;;16.03;15.23;;;21.20;99.90;;;;;;4989950;28;20454;-72
2022/10/20 09:07:48;;;;;;;16.20;15.40;;;20.70;99.90;;;;;;4989729;28;20450;-72
2022/10/20 09:10:26;;;;;;;16.30;15.30;;;20.20;99.90;;;;;;4989989;28;20447;-73
2022/10/20 09:12:53;;;;;;;15.43;14.60;;;19.90;99.90;;;;;;4989476;28;20749;-73
2022/10/20 09:15:21;;;;;;;16.57;15.67;;;19.80;99.90;;;;;;4989309;28;20486;-73
2022/10/20 09:17:52;;;;;;;15.23;14.43;;;19.90;99.90;;;;;;4989518;28;20462;-73
2022/10/20 09:20:24;;;;;;;15.10;14.40;;;20.50;99.90;;;;;;4988570;28;20455;-75
2022/10/20 09:22:50;;;;;;;15.60;14.90;;;21.00;99.90;;;;;;4989515;28;20477;-73
2022/10/20 09:25:22;;;;;;;15.17;14.40;;;21.40;99.90;;;;;;4989515;28;20451;-74
2022/10/20 09:27:49;;;;;;;15.20;14.40;;;21.60;99.90;;;;;;4989648;28;20447;-74
2022/10/20 09:30:19;;;;;;;14.30;13.40;;;21.30;99.90;;;;;;4989943;28;20454;-74
2022/10/20 09:32:47;;;;;;;15.53;14.33;;;21.50;99.90;;;;;;4989999;28;20487;-74
2022/10/20 09:35:27;;;;;;;14.57;13.87;;;21.40;99.90;;;;;;4989650;28;20490;-73
2022/10/20 09:37:59;;;;;;;15.30;14.50;;;21.60;99.90;;;;;;4989457;28;20459;-74
2022/10/20 09:40:27;;;;;;;15.63;14.73;;;21.80;99.90;;;;;;4989347;28;20824;-74
2022/10/20 09:42:56;;;;;;;15.20;14.40;;;21.30;99.90;;;;;;4989156;28;20454;-73
2022/10/20 09:45:27;;;;;;;16.70;15.30;;;21.20;99.90;;;;;;4988944;28;20814;-74
2022/10/20 09:47:58;;;;;;;15.73;14.63;;;21.40;99.90;;;;;;4988933;28;20844;-73
2022/10/20 09:50:31;;;;;;;15.73;14.87;;;21.20;99.90;;;;;;4989082;28;20461;-74
2022/10/20 09:52:59;;;;;;;17.33;16.33;;;20.80;99.90;;;;;;4989335;28;20457;-74
2022/10/20 09:55:29;;;;;;;16.60;15.40;;;20.50;99.90;;;;;;4988905;28;20498;-74
2022/10/20 09:57:58;;;;;;;16.00;15.00;;;20.30;99.90;;;;;;4988891;28;20454;-74
2022/10/20 10:00:27;;;;;;;16.40;15.40;;;19.90;99.90;;;;;;4988988;28;20455;-74
2022/10/20 10:03:25;;;;;;;16.30;15.33;;;19.40;99.90;;;;;;4988615;28;20454;-74
2022/10/20 10:05:54;;;;;;;14.80;14.00;;;19.40;99.90;;;;;;4928428;29;21229;-74
2022/10/20 10:08:23;;;;;;;15.80;14.80;;;19.60;99.90;;;;;;4975255;28;20478;-73
2022/10/20 10:10:59;;;;;;;15.17;14.37;;;19.80;99.90;;;;;;4988592;28;20801;-74
2022/10/20 10:13:29;;;;;;;15.07;13.90;;;19.80;99.90;;;;;;4988818;28;20450;-73
2022/10/20 10:16:02;;;;;;;14.73;13.83;;;19.80;99.90;;;;;;4988768;28;20449;-73
2022/10/20 10:18:29;;;;;;;14.33;13.63;;;19.60;99.90;;;;;;4988947;28;20451;-73
2022/10/20 10:21:03;;;;;;;14.77;14.07;;;20.00;99.90;;;;;;4988693;28;20478;-73
2022/10/20 10:23:32;;;;;;;14.87;14.17;;;20.20;99.90;;;;;;4988941;28;20447;-73
2022/10/20 10:25:59;;;;;;;15.30;14.50;;;20.90;99.90;;;;;;4989060;28;20562;-73
2022/10/20 10:28:32;;;;;;;14.37;13.60;;;20.80;99.90;;;;;;4988999;28;20465;-73
2022/10/20 10:31:22;;;;;;;15.00;14.20;;;20.80;99.90;;;;;;4988844;28;20956;-73
2022/10/20 10:33:51;;;;;;;14.53;13.87;;;20.90;99.90;;;;;;4984026;28;20577;-72
2022/10/20 10:36:28;;;;;;;14.90;14.20;;;20.80;99.90;;;;;;4991935;28;20482;-72
2022/10/20 10:38:55;;;;;;;14.43;13.73;;;20.70;99.90;;;;;;4992465;28;20463;-73
2022/10/20 10:41:37;;;;;;;15.67;14.47;;;20.70;99.90;;;;;;4991985;28;20486;-73
2022/10/20 10:44:10;;;;;;;15.03;14.30;;;21.20;99.90;;;;;;4992110;28;20502;-72
2022/10/20 10:46:42;;;;;;;15.37;14.50;;;21.40;99.90;;;;;;4992115;28;20821;-73
2022/10/20 10:49:27;;;;;;;15.90;14.97;;;21.30;99.90;;;;;;4991787;28;20925;-73
2022/10/20 10:52:03;;;;;;;14.87;14.17;;;21.00;99.90;;;;;;4991841;28;20557;-72
2022/10/20 10:54:45;;;;;;;16.20;15.30;;;20.80;99.90;;;;;;4991913;28;20504;-73
2022/10/20 10:57:18;;;;;;;15.50;14.50;;;20.70;99.90;;;;;;4991861;28;20458;-72
2022/10/20 10:59:49;;;;;;;14.70;13.90;;;20.70;99.90;;;;;;4992190;28;20455;-73
2022/10/20 11:02:40;;;;;;;14.67;13.87;;;20.50;99.90;;;;;;4991948;28;20459;-73
2022/10/20 11:05:38;;;;;;;15.03;14.17;;;20.20;99.90;;;;;;4991742;28;20443;-74
2022/10/20 11:08:17;;;;;;;16.17;15.20;;;20.10;99.90;;;;;;4991652;28;20447;-73
2022/10/20 11:10:50;;;;;;;15.57;14.77;;;19.80;99.90;;;;;;4991879;28;20944;-73
2022/10/20 11:13:32;;;;;;;16.67;15.77;;;19.40;99.90;;;;;;4991611;28;20451;-73
2022/10/20 11:16:14;;;;;;;16.77;15.33;;;19.40;99.90;;;;;;4991674;28;20494;-73
2022/10/20 11:19:12;;;;;;;15.63;14.73;;;19.40;99.90;;;;;;4991578;28;20509;-73
2022/10/20 11:21:50;;;;;;;16.77;15.57;;;19.30;99.90;;;;;;4991164;28;20459;-73
2022/10/20 11:24:28;;;;;;;15.50;14.37;;;19.30;99.90;;;;;;4991506;28;20469;-74
2022/10/20 11:27:01;;;;;;;14.87;13.90;;;19.30;99.90;;;;;;4990992;28;20476;-73
2022/10/20 11:29:31;;;;;;;14.37;13.57;;;19.20;99.90;;;;;;4991284;28;20562;-73
2022/10/20 11:32:07;;;;;;;14.50;13.80;;;19.60;99.90;;;;;;4991351;28;20450;-73
2022/10/20 11:34:38;;;;;;;15.07;14.27;;;19.90;99.90;;;;;;4991513;28;20490;-73
2022/10/20 11:37:11;;;;;;;16.17;15.33;;;20.10;99.90;;;;;;4991249;28;20550;-73
2022/10/20 11:39:43;;;;;;;14.37;13.57;;;20.20;99.90;;;;;;4990947;28;20463;-74
2022/10/20 11:42:25;;;;;;;16.53;15.43;;;20.40;99.90;;;;;;4990829;28;20458;-73
2022/10/20 11:44:54;;;;;;;15.07;14.37;;;20.30;99.90;;;;;;4989850;28;20447;-73
2022/10/20 11:47:27;;;;;;;15.70;14.67;;;19.90;99.90;;;;;;4991670;28;20688;-73
2022/10/20 11:49:54;;;;;;;14.23;13.43;;;20.00;99.90;;;;;;4990832;28;20466;-74
2022/10/20 11:52:49;;;;;;;15.60;14.50;;;20.20;99.90;;;;;;4990619;28;20660;-74
2022/10/20 11:55:42;;;;;;;14.50;13.70;;;20.10;99.90;;;;;;4990873;28;20895;-73
2022/10/20 11:58:23;;;;;;;15.10;14.20;;;20.20;99.90;;;;;;4990160;28;20505;-73
2022/10/20 12:01:00;;;;;;;14.60;13.90;;;20.00;99.90;;;;;;4990326;28;20450;-73
2022/10/20 12:03:51;;;;;;;15.40;14.47;;;19.90;99.90;;;;;;4990477;28;20446;-73
2022/10/20 12:06:57;;;;;;;17.80;16.30;;;19.90;99.90;;;;;;4990222;28;20443;-72
2022/10/20 12:09:52;;;;;;;14.83;14.13;;;19.90;99.90;;;;;;4985216;28;20466;-72
2022/10/20 12:12:28;;;;;;;15.97;14.90;;;19.60;99.90;;;;;;4984687;28;20951;-72
2022/10/20 12:14:58;;;;;;;14.97;14.17;;;19.60;99.90;;;;;;4990085;28;20498;-73
2022/10/20 12:17:32;;;;;;;14.80;14.10;;;19.60;99.90;;;;;;4990730;28;20466;-73
2022/10/20 12:20:36;;;;;;;15.70;14.60;;;19.50;99.90;;;;;;4990447;28;20485;-73
2022/10/20 12:23:04;;;;;;;15.80;14.50;;;19.40;99.90;;;;;;4989559;28;20889;-74
2022/10/20 12:25:37;;;;;;;14.97;14.17;;;19.40;99.90;;;;;;4990154;28;20455;-74
2022/10/20 12:28:42;;;;;;;15.20;14.40;;;19.40;99.90;;;;;;4989825;28;20477;-73
2022/10/20 12:31:09;;;;;;;15.07;14.07;;;19.40;99.90;;;;;;4990004;28;20508;-73
2022/10/20 12:33:39;;;;;;;14.33;13.33;;;19.30;99.90;;;;;;4989596;28;20726;-73
2022/10/20 12:36:33;;;;;;;14.37;13.57;;;19.30;99.90;;;;;;4989654;28;20483;-74
2022/10/20 12:39:19;;;;;;;14.90;14.03;;;19.40;99.90;;;;;;4977093;28;20467;-74
2022/10/20 12:41:56;;;;;;;14.23;13.33;;;19.40;99.90;;;;;;4989839;28;20458;-73
2022/10/20 12:44:26;;;;;;;15.10;14.30;;;19.50;99.90;;;;;;4989910;28;20485;-74
2022/10/20 12:46:55;;;;;;;15.73;14.43;;;19.50;99.90;;;;;;4989812;28;20434;-75
2022/10/20 12:49:28;;;;;;;16.20;14.83;;;19.30;99.90;;;;;;4989991;28;21149;-74